Time;durP1;ratioP1;P1;durP2;ratioP2;P2;SDS_P1;SDS_P2;PMS_P1;PMS_P2;Temp;Humidity;BMP_temperature;BMP_pressure;BME280_temperature;BME280_humidity;BME280_pressure;Samples;Min_cycle;Max_cycle;Signal;HPM_P1;HPM_P2
2023/09/07 00:01:55;;;;;;;6.10;2.70;;;21.10;99.90;;;;;;5050620;28;20136;-73
2023/09/07 00:04:22;;;;;;;4.65;2.50;;;21.00;99.90;;;;;;5053361;28;20072;-73
2023/09/07 00:06:49;;;;;;;5.57;2.72;;;21.00;99.90;;;;;;5065351;28;20464;-73
2023/09/07 00:09:18;;;;;;;6.03;2.95;;;21.00;99.90;;;;;;5065238;28;20102;-73
2023/09/07 00:11:47;;;;;;;8.15;2.90;;;20.90;99.90;;;;;;5059317;28;20052;-72
2023/09/07 00:14:16;;;;;;;6.38;2.95;;;20.90;99.90;;;;;;5053890;28;20041;-72
2023/09/07 00:16:41;;;;;;;8.85;3.40;;;20.80;99.90;;;;;;5062815;28;20682;-72
2023/09/07 00:19:07;;;;;;;6.28;2.60;;;20.80;99.90;;;;;;5051754;28;20082;-72
2023/09/07 00:21:33;;;;;;;8.02;2.70;;;20.80;99.90;;;;;;5066507;28;20056;-72
2023/09/07 00:23:59;;;;;;;8.48;2.85;;;20.70;99.90;;;;;;5049117;28;20511;-73
2023/09/07 00:26:24;;;;;;;7.32;2.53;;;20.70;99.90;;;;;;5060864;28;20135;-73
2023/09/07 00:28:50;;;;;;;8.35;3.25;;;20.60;99.90;;;;;;5060997;28;20127;-72
2023/09/07 00:31:16;;;;;;;8.20;2.55;;;20.60;99.90;;;;;;5067149;28;20710;-70
2023/09/07 00:33:41;;;;;;;6.15;2.80;;;20.50;99.90;;;;;;5062224;28;20045;-70
2023/09/07 00:36:07;;;;;;;5.72;2.47;;;20.50;99.90;;;;;;5064960;28;20051;-70
2023/09/07 00:38:33;;;;;;;8.45;2.88;;;20.40;99.90;;;;;;5065467;28;20056;-70
2023/09/07 00:40:59;;;;;;;13.82;3.35;;;20.40;99.90;;;;;;5048811;28;20797;-70
2023/09/07 00:43:24;;;;;;;9.20;3.13;;;20.30;99.90;;;;;;5061990;28;20040;-70
2023/09/07 00:45:50;;;;;;;6.18;2.80;;;20.30;99.90;;;;;;5066749;28;20049;-70
2023/09/07 00:48:16;;;;;;;8.43;2.88;;;20.20;99.90;;;;;;5065731;28;20037;-69
2023/09/07 00:50:45;;;;;;;5.70;2.58;;;20.20;99.90;;;;;;5066778;28;20036;-70
2023/09/07 00:53:11;;;;;;;4.65;2.40;;;20.10;99.90;;;;;;5063531;28;20055;-70
2023/09/07 00:55:38;;;;;;;7.45;2.90;;;20.10;99.90;;;;;;5057380;28;20133;-70
2023/09/07 00:58:04;;;;;;;7.15;2.70;;;20.10;99.90;;;;;;5058594;28;20052;-70
2023/09/07 01:00:30;;;;;;;6.00;2.30;;;20.10;99.90;;;;;;5052915;28;20048;-70
2023/09/07 01:02:57;;;;;;;6.90;2.40;;;20.10;99.90;;;;;;5066268;28;20086;-70
2023/09/07 01:05:29;;;;;;;5.18;2.80;;;20.00;99.90;;;;;;5066479;28;20040;-70
2023/09/07 01:08:03;;;;;;;5.70;2.80;;;20.00;99.90;;;;;;5063782;28;20048;-70
2023/09/07 01:10:28;;;;;;;5.30;2.55;;;19.90;99.90;;;;;;5065632;28;20721;-70
2023/09/07 01:12:54;;;;;;;7.45;3.40;;;19.90;99.90;;;;;;5066485;28;20044;-71
2023/09/07 01:15:20;;;;;;;6.18;2.60;;;19.80;99.90;;;;;;5053199;28;20061;-71
2023/09/07 01:17:46;;;;;;;10.88;3.75;;;19.80;99.90;;;;;;5064763;28;20040;-71
2023/09/07 01:20:13;;;;;;;6.50;2.90;;;19.80;99.90;;;;;;5066178;28;20048;-70
2023/09/07 01:22:40;;;;;;;7.28;3.17;;;19.80;99.90;;;;;;5046129;28;20060;-70
2023/09/07 01:25:06;;;;;;;7.72;3.08;;;19.70;99.90;;;;;;5062388;28;20055;-71
2023/09/07 01:27:33;;;;;;;7.25;3.17;;;19.70;99.90;;;;;;5057540;28;20048;-70
2023/09/07 01:29:59;;;;;;;7.30;2.83;;;19.70;99.90;;;;;;5051068;28;20391;-70
2023/09/07 01:32:26;;;;;;;6.80;2.78;;;19.70;99.90;;;;;;5057496;28;20151;-70
2023/09/07 01:34:56;;;;;;;6.55;2.75;;;19.60;99.90;;;;;;5065344;28;20052;-70
2023/09/07 01:37:22;;;;;;;4.80;2.78;;;19.60;99.90;;;;;;5045860;28;20563;-70
2023/09/07 01:39:49;;;;;;;8.57;2.92;;;19.60;99.90;;;;;;5056602;28;20135;-70
2023/09/07 01:42:14;;;;;;;6.22;3.10;;;19.60;99.90;;;;;;5052803;28;20048;-70
2023/09/07 01:44:40;;;;;;;7.30;3.30;;;19.50;99.90;;;;;;5065806;28;20054;-70
2023/09/07 01:47:06;;;;;;;8.25;3.10;;;19.50;99.90;;;;;;5066077;28;20049;-70
2023/09/07 01:49:32;;;;;;;8.90;3.00;;;19.50;99.90;;;;;;5060036;28;20517;-70
2023/09/07 01:51:57;;;;;;;6.30;2.88;;;19.40;99.90;;;;;;5065839;28;20048;-70
2023/09/07 01:54:23;;;;;;;6.32;3.08;;;19.40;99.90;;;;;;5066119;28;20039;-70
2023/09/07 01:56:49;;;;;;;8.30;3.00;;;19.40;99.90;;;;;;5064209;28;20068;-70
2023/09/07 01:59:14;;;;;;;7.82;3.05;;;19.30;99.90;;;;;;5066511;28;20041;-70
2023/09/07 02:01:40;;;;;;;7.80;3.15;;;19.30;99.90;;;;;;5058838;28;20066;-70
2023/09/07 02:04:06;;;;;;;5.28;2.70;;;19.30;99.90;;;;;;5055185;28;20049;-70
2023/09/07 02:06:32;;;;;;;7.38;3.17;;;19.30;99.90;;;;;;5059105;28;20106;-70
2023/09/07 02:08:58;;;;;;;7.70;3.05;;;19.20;99.90;;;;;;5066298;28;20123;-70
2023/09/07 02:11:23;;;;;;;7.90;3.33;;;19.20;99.90;;;;;;5060417;28;20421;-70
2023/09/07 02:13:49;;;;;;;7.22;3.40;;;19.20;99.90;;;;;;5066637;28;20052;-70
2023/09/07 02:16:15;;;;;;;8.30;3.30;;;19.20;99.90;;;;;;5065837;28;20040;-71
2023/09/07 02:18:46;;;;;;;5.78;3.38;;;19.10;99.90;;;;;;5063280;28;20067;-70
2023/09/07 02:21:13;;;;;;;7.30;3.70;;;19.10;99.90;;;;;;5069377;28;20055;-70
2023/09/07 02:23:39;;;;;;;10.27;3.83;;;19.10;99.90;;;;;;5066392;28;20055;-70
2023/09/07 02:26:05;;;;;;;9.30;3.70;;;19.00;99.90;;;;;;5057659;28;20120;-70
2023/09/07 02:28:31;;;;;;;9.80;3.72;;;19.00;99.90;;;;;;5067525;28;20036;-70
2023/09/07 02:31:06;;;;;;;6.85;3.88;;;19.00;99.90;;;;;;5067974;28;20098;-70
2023/09/07 02:33:32;;;;;;;6.68;3.78;;;19.00;99.90;;;;;;5069159;28;20599;-70
2023/09/07 02:35:58;;;;;;;5.93;3.70;;;18.90;99.90;;;;;;5069720;28;20554;-70
2023/09/07 02:38:24;;;;;;;11.77;3.90;;;18.90;99.90;;;;;;5069189;28;20386;-70
2023/09/07 02:40:50;;;;;;;6.55;3.75;;;18.90;99.90;;;;;;5042933;28;20041;-70
2023/09/07 02:43:16;;;;;;;7.40;4.00;;;18.80;99.90;;;;;;5066165;28;20412;-70
2023/09/07 02:45:43;;;;;;;7.85;3.83;;;18.80;99.90;;;;;;5068164;28;20036;-70
2023/09/07 02:48:08;;;;;;;5.28;3.38;;;18.80;99.90;;;;;;5052379;28;20041;-70
2023/09/07 02:50:35;;;;;;;7.25;3.70;;;18.80;99.90;;;;;;5067060;28;20045;-70
2023/09/07 02:53:01;;;;;;;11.25;3.95;;;18.70;99.90;;;;;;5066184;28;20404;-70
2023/09/07 02:55:28;;;;;;;10.13;4.05;;;18.70;99.90;;;;;;5055188;28;20074;-70
2023/09/07 02:57:55;;;;;;;6.70;3.78;;;18.70;99.90;;;;;;5061053;28;20136;-69
2023/09/07 03:00:21;;;;;;;6.72;3.83;;;18.70;99.90;;;;;;5062480;28;20051;-70
2023/09/07 03:02:48;;;;;;;10.63;4.20;;;18.60;99.90;;;;;;5057718;28;20048;-69
2023/09/07 03:05:17;;;;;;;6.28;3.80;;;18.70;99.90;;;;;;5059950;28;20106;-70
2023/09/07 03:07:45;;;;;;;6.25;3.80;;;18.60;99.90;;;;;;5053849;28;20045;-72
2023/09/07 03:10:11;;;;;;;7.05;3.75;;;18.70;99.90;;;;;;5057639;28;20045;-70
2023/09/07 03:12:37;;;;;;;6.45;3.72;;;18.60;99.90;;;;;;5048257;28;20045;-70
2023/09/07 03:15:04;;;;;;;10.07;4.40;;;18.60;99.90;;;;;;5066371;28;20130;-70
2023/09/07 03:17:30;;;;;;;7.95;3.63;;;18.60;99.90;;;;;;5049336;28;20412;-70
2023/09/07 03:19:56;;;;;;;6.68;3.88;;;18.60;99.90;;;;;;5067781;28;20115;-70
2023/09/07 03:22:24;;;;;;;9.50;3.97;;;18.50;99.90;;;;;;5058371;28;20119;-70
2023/09/07 03:24:51;;;;;;;6.55;4.15;;;18.50;99.90;;;;;;5066729;28;20040;-70
2023/09/07 03:27:17;;;;;;;6.50;3.75;;;18.40;99.90;;;;;;5066096;28;20487;-70
2023/09/07 03:29:45;;;;;;;6.68;3.90;;;18.50;99.90;;;;;;5067948;28;20052;-70
2023/09/07 03:32:11;;;;;;;6.60;3.72;;;18.40;99.90;;;;;;5067227;28;20386;-70
2023/09/07 03:34:37;;;;;;;6.82;3.92;;;18.40;99.90;;;;;;5068187;28;20090;-70
2023/09/07 03:37:05;;;;;;;6.63;3.83;;;18.40;99.90;;;;;;5061516;28;20092;-70
2023/09/07 03:39:32;;;;;;;8.52;4.53;;;18.40;99.90;;;;;;5064102;28;20537;-70
2023/09/07 03:41:57;;;;;;;8.27;4.30;;;18.30;99.90;;;;;;5059835;28;20110;-70
2023/09/07 03:44:23;;;;;;;8.15;4.60;;;18.30;99.90;;;;;;5056539;28;20045;-70
2023/09/07 03:46:49;;;;;;;9.43;4.20;;;18.30;99.90;;;;;;5058023;28;20048;-70
2023/09/07 03:49:15;;;;;;;8.70;4.72;;;18.30;99.90;;;;;;5057671;28;20033;-71
2023/09/07 03:51:41;;;;;;;10.43;4.60;;;18.30;99.90;;;;;;5064713;28;20144;-70
2023/09/07 03:54:06;;;;;;;12.50;5.35;;;18.30;99.90;;;;;;5054180;28;20051;-69
2023/09/07 03:56:32;;;;;;;8.52;4.88;;;18.20;99.90;;;;;;5064393;28;20040;-70
2023/09/07 03:58:58;;;;;;;8.82;4.53;;;18.20;99.90;;;;;;5066859;28;20051;-70
2023/09/07 04:01:23;;;;;;;9.88;5.20;;;18.20;99.90;;;;;;5067475;28;20052;-70
2023/09/07 04:03:50;;;;;;;7.07;4.22;;;18.20;99.90;;;;;;5068092;28;20044;-70
2023/09/07 04:06:16;;;;;;;9.57;4.90;;;18.10;99.90;;;;;;5067482;28;20501;-70
2023/09/07 04:08:41;;;;;;;6.55;4.38;;;18.20;99.90;;;;;;5066515;28;20101;-70
2023/09/07 04:11:07;;;;;;;7.82;4.70;;;18.10;99.90;;;;;;5066973;28;20049;-70
2023/09/07 04:13:33;;;;;;;7.60;4.63;;;18.20;99.90;;;;;;5062382;28;20569;-70
2023/09/07 04:15:58;;;;;;;9.20;5.38;;;18.10;99.90;;;;;;5060468;28;20131;-70
2023/09/07 04:18:24;;;;;;;9.65;4.90;;;18.10;99.90;;;;;;5064671;28;20052;-70
2023/09/07 04:20:50;;;;;;;11.20;5.60;;;18.10;99.90;;;;;;5066565;28;20590;-70
2023/09/07 04:23:16;;;;;;;9.65;5.50;;;18.10;99.90;;;;;;5065182;28;20075;-69
2023/09/07 04:25:41;;;;;;;9.02;5.38;;;18.10;99.90;;;;;;5067083;28;20120;-72
2023/09/07 04:28:08;;;;;;;7.28;5.10;;;18.10;99.90;;;;;;5059579;28;20433;-72
2023/09/07 04:30:43;;;;;;;9.45;5.30;;;18.00;99.90;;;;;;5058252;28;20044;-72
2023/09/07 04:33:09;;;;;;;9.18;5.00;;;18.00;99.90;;;;;;5061588;28;20044;-72
2023/09/07 04:35:34;;;;;;;11.40;5.85;;;18.00;99.90;;;;;;5067342;28;20044;-72
2023/09/07 04:38:00;;;;;;;11.90;5.65;;;18.00;99.90;;;;;;5061795;28;20036;-72
2023/09/07 04:40:26;;;;;;;8.77;5.03;;;18.00;99.90;;;;;;5060495;28;20055;-72
2023/09/07 04:42:52;;;;;;;8.93;5.28;;;18.00;99.90;;;;;;5065422;28;20127;-72
2023/09/07 04:45:17;;;;;;;11.20;5.25;;;18.00;99.90;;;;;;5067299;28;20828;-72
2023/09/07 04:47:44;;;;;;;10.70;5.05;;;17.90;99.90;;;;;;5059870;28;20040;-72
2023/09/07 04:50:10;;;;;;;11.80;5.20;;;17.90;99.90;;;;;;5056124;28;20053;-72
2023/09/07 04:52:36;;;;;;;9.40;4.85;;;17.90;99.90;;;;;;5061858;28;20040;-72
2023/09/07 04:55:02;;;;;;;9.98;5.15;;;17.80;99.90;;;;;;5060781;28;20044;-71
2023/09/07 04:57:30;;;;;;;11.93;6.28;;;17.80;99.90;;;;;;5055988;28;20138;-72
2023/09/07 04:59:55;;;;;;;9.80;4.55;;;17.80;99.90;;;;;;5051705;28;20440;-72
2023/09/07 05:02:21;;;;;;;8.65;5.20;;;17.80;99.90;;;;;;5055246;28;20048;-72
2023/09/07 05:04:47;;;;;;;11.35;5.43;;;17.80;99.90;;;;;;5061496;28;20670;-72
2023/09/07 05:07:13;;;;;;;12.95;5.25;;;17.80;99.90;;;;;;5061041;28;20045;-69
2023/09/07 05:09:39;;;;;;;11.05;6.00;;;17.70;99.90;;;;;;5058232;28;20041;-70
2023/09/07 05:12:05;;;;;;;11.07;5.22;;;17.80;99.90;;;;;;5047541;28;20099;-69
2023/09/07 05:14:30;;;;;;;10.68;5.38;;;17.70;99.90;;;;;;5043085;28;20090;-70
2023/09/07 05:16:57;;;;;;;9.48;4.90;;;17.70;99.90;;;;;;5045594;28;20029;-70
2023/09/07 05:19:23;;;;;;;8.57;5.15;;;17.70;99.90;;;;;;5044403;28;20056;-70
2023/09/07 05:21:49;;;;;;;10.75;5.60;;;17.70;99.90;;;;;;5046328;28;20263;-70
2023/09/07 05:24:15;;;;;;;11.05;5.75;;;17.70;99.90;;;;;;5045747;28;20123;-70
2023/09/07 05:26:43;;;;;;;9.38;5.07;;;17.70;99.90;;;;;;5050458;28;20047;-70
2023/09/07 05:29:10;;;;;;;8.05;5.30;;;17.60;99.90;;;;;;5053262;28;20048;-70
2023/09/07 05:31:36;;;;;;;10.48;5.95;;;17.60;99.90;;;;;;5043501;28;20126;-70
2023/09/07 05:34:02;;;;;;;10.80;5.88;;;17.60;99.90;;;;;;5042703;28;20069;-70
2023/09/07 05:36:29;;;;;;;12.35;5.68;;;17.60;99.90;;;;;;5055484;28;20044;-69
2023/09/07 05:38:54;;;;;;;9.02;5.40;;;17.60;99.90;;;;;;5043303;28;20044;-69
2023/09/07 05:41:20;;;;;;;9.35;5.22;;;17.60;99.90;;;;;;5058227;28;20450;-69
2023/09/07 05:43:46;;;;;;;10.27;5.68;;;17.60;99.90;;;;;;5064315;28;20032;-70
2023/09/07 05:46:11;;;;;;;11.35;6.80;;;17.60;99.90;;;;;;5053746;28;20051;-70
2023/09/07 05:48:37;;;;;;;8.52;5.63;;;17.60;99.90;;;;;;5061644;28;20648;-70
2023/09/07 05:51:03;;;;;;;10.05;5.47;;;17.70;99.90;;;;;;5056525;28;20072;-70
2023/09/07 05:53:29;;;;;;;8.27;4.97;;;17.80;99.90;;;;;;5060049;28;20041;-70
2023/09/07 05:55:54;;;;;;;10.02;5.78;;;17.80;99.90;;;;;;5060349;28;20048;-70
2023/09/07 05:58:20;;;;;;;10.35;6.28;;;17.90;99.90;;;;;;5065311;28;20036;-70
2023/09/07 06:00:46;;;;;;;12.65;5.25;;;17.90;99.90;;;;;;5051854;28;20036;-70
2023/09/07 06:03:15;;;;;;;9.65;5.70;;;17.90;99.90;;;;;;5061673;28;20044;-70
2023/09/07 06:05:40;;;;;;;9.27;5.50;;;18.00;99.90;;;;;;5052649;28;20041;-70
2023/09/07 06:08:07;;;;;;;15.90;5.38;;;18.00;99.90;;;;;;5062846;28;20101;-70
2023/09/07 06:10:33;;;;;;;11.27;6.55;;;18.00;99.90;;;;;;5050962;28;20456;-70
2023/09/07 06:12:59;;;;;;;10.10;5.90;;;17.90;99.90;;;;;;5057557;28;20032;-71
2023/09/07 06:15:25;;;;;;;12.00;5.90;;;18.00;99.90;;;;;;5062579;28;20497;-70
2023/09/07 06:17:51;;;;;;;16.05;6.18;;;18.00;99.90;;;;;;5049805;28;20718;-70
2023/09/07 06:20:19;;;;;;;12.23;6.40;;;18.00;99.90;;;;;;5053370;28;20041;-70
2023/09/07 06:22:45;;;;;;;10.65;6.30;;;18.00;99.90;;;;;;5058431;28;20052;-70
2023/09/07 06:25:11;;;;;;;9.75;6.50;;;18.00;99.90;;;;;;5057357;28;20045;-70
2023/09/07 06:27:37;;;;;;;9.75;5.88;;;18.10;99.90;;;;;;5047470;28;20053;-70
2023/09/07 06:30:08;;;;;;;12.73;6.90;;;18.10;99.90;;;;;;5058701;28;20055;-70
2023/09/07 06:32:34;;;;;;;10.77;6.57;;;18.10;99.90;;;;;;5054695;28;20079;-70
2023/09/07 06:34:59;;;;;;;9.93;6.45;;;18.20;99.90;;;;;;5055321;28;20083;-70
2023/09/07 06:37:25;;;;;;;13.27;7.07;;;18.20;99.90;;;;;;5065348;28;20120;-70
2023/09/07 06:39:51;;;;;;;9.68;6.50;;;18.20;99.90;;;;;;5058205;28;20559;-70
2023/09/07 06:42:17;;;;;;;12.25;7.03;;;18.20;99.90;;;;;;5059631;28;20108;-70
2023/09/07 06:44:43;;;;;;;10.23;6.75;;;18.20;99.90;;;;;;5049274;28;20052;-70
2023/09/07 06:47:09;;;;;;;8.85;6.82;;;18.30;99.90;;;;;;5055571;28;20045;-70
2023/09/07 06:49:37;;;;;;;10.40;7.25;;;18.30;99.90;;;;;;5055055;28;20040;-70
2023/09/07 06:52:03;;;;;;;10.07;6.90;;;18.40;99.90;;;;;;5059515;28;20071;-70
2023/09/07 06:54:29;;;;;;;10.98;6.32;;;18.40;99.90;;;;;;5056527;28;20032;-70
2023/09/07 06:56:55;;;;;;;9.43;6.80;;;18.50;99.90;;;;;;5050730;28;20048;-70
2023/09/07 06:59:21;;;;;;;9.98;6.95;;;18.50;99.90;;;;;;5061057;28;20382;-70
2023/09/07 07:01:47;;;;;;;11.55;6.82;;;18.60;99.90;;;;;;5066473;28;20036;-70
2023/09/07 07:04:13;;;;;;;11.40;6.57;;;18.60;99.90;;;;;;5065920;28;20126;-70
2023/09/07 07:06:39;;;;;;;11.20;6.85;;;18.70;99.90;;;;;;5062813;28;20416;-71
2023/09/07 07:09:05;;;;;;;11.32;6.93;;;18.70;99.90;;;;;;5060500;28;20048;-70
2023/09/07 07:11:31;;;;;;;11.02;6.60;;;18.80;99.90;;;;;;5048794;28;20055;-70
2023/09/07 07:13:56;;;;;;;10.82;7.07;;;18.90;99.90;;;;;;5061364;28;20036;-70
2023/09/07 07:16:22;;;;;;;9.35;6.78;;;18.90;99.90;;;;;;5053093;28;20041;-70
2023/09/07 07:18:48;;;;;;;10.90;6.18;;;19.00;99.90;;;;;;5055677;28;20492;-71
2023/09/07 07:21:13;;;;;;;10.30;6.75;;;19.10;99.90;;;;;;5055685;28;20708;-71
2023/09/07 07:23:39;;;;;;;11.27;6.53;;;19.10;99.90;;;;;;5051217;28;20495;-71
2023/09/07 07:26:05;;;;;;;10.20;6.50;;;19.30;99.90;;;;;;5055283;28;20492;-70
2023/09/07 07:28:31;;;;;;;9.82;5.85;;;19.40;99.90;;;;;;5054995;28;20041;-71
2023/09/07 07:30:56;;;;;;;9.95;5.60;;;19.50;99.90;;;;;;5051759;28;20040;-70
2023/09/07 07:33:22;;;;;;;12.35;5.65;;;19.70;99.90;;;;;;5060677;28;20040;-71
2023/09/07 07:35:48;;;;;;;11.18;5.53;;;19.90;99.90;;;;;;5056585;28;20141;-71
2023/09/07 07:38:14;;;;;;;9.15;5.00;;;20.10;99.90;;;;;;5051448;28;20060;-71
2023/09/07 07:40:40;;;;;;;9.57;5.60;;;20.30;99.90;;;;;;5063945;28;20501;-71
2023/09/07 07:43:07;;;;;;;10.45;5.55;;;20.60;99.90;;;;;;5055074;28;20071;-71
2023/09/07 07:45:36;;;;;;;10.50;5.53;;;20.70;99.90;;;;;;5053993;28;20040;-71
2023/09/07 07:48:05;;;;;;;7.53;4.40;;;20.80;99.90;;;;;;5054817;28;20060;-71
2023/09/07 07:50:31;;;;;;;10.68;5.13;;;21.00;99.90;;;;;;5055150;28;20048;-71
2023/09/07 07:52:57;;;;;;;9.35;4.57;;;21.10;99.90;;;;;;5052084;28;20121;-73
2023/09/07 07:55:23;;;;;;;8.95;4.85;;;21.30;99.90;;;;;;5050047;28;20071;-71
2023/09/07 07:57:48;;;;;;;11.52;4.70;;;21.40;99.90;;;;;;5055514;28;20117;-71
2023/09/07 08:00:14;;;;;;;6.93;3.92;;;21.60;99.90;;;;;;5087150;27;20596;-71
2023/09/07 08:02:40;;;;;;;8.55;4.18;;;21.70;99.90;;;;;;5056041;28;20047;-70
2023/09/07 08:05:06;;;;;;;6.45;4.18;;;21.80;99.90;;;;;;5059951;28;20050;-71
2023/09/07 08:07:32;;;;;;;7.85;3.97;;;21.90;99.90;;;;;;5057521;28;20484;-71
2023/09/07 08:09:57;;;;;;;6.85;3.92;;;22.00;99.90;;;;;;5051975;28;20037;-71
2023/09/07 08:12:23;;;;;;;9.65;4.15;;;22.20;99.90;;;;;;5051562;28;20045;-71
2023/09/07 08:14:49;;;;;;;10.38;3.92;;;22.20;99.90;;;;;;5054441;28;20044;-71
2023/09/07 08:17:15;;;;;;;7.50;3.70;;;22.40;99.90;;;;;;5060449;28;20374;-73
2023/09/07 08:19:40;;;;;;;7.78;3.80;;;22.50;99.90;;;;;;5049108;28;20631;-73
2023/09/07 08:22:06;;;;;;;6.43;3.80;;;22.50;99.90;;;;;;5064424;28;20119;-73
2023/09/07 08:24:32;;;;;;;7.75;4.20;;;22.70;99.90;;;;;;5066214;28;20044;-74
2023/09/07 08:27:00;;;;;;;8.10;4.05;;;22.80;99.90;;;;;;5059335;28;20037;-73
2023/09/07 08:29:26;;;;;;;14.45;4.25;;;22.90;99.90;;;;;;5065232;28;20091;-73
2023/09/07 08:31:55;;;;;;;10.95;4.20;;;23.00;99.90;;;;;;5056859;28;20075;-73
2023/09/07 08:34:23;;;;;;;9.70;3.60;;;23.00;99.90;;;;;;5062382;28;20570;-74
2023/09/07 08:36:49;;;;;;;9.02;4.55;;;23.10;99.90;;;;;;5063709;28;20044;-73
2023/09/07 08:39:16;;;;;;;7.57;4.45;;;23.20;99.90;;;;;;5061486;28;20040;-73
2023/09/07 08:41:44;;;;;;;6.22;3.65;;;23.30;99.90;;;;;;5059158;28;20043;-74
2023/09/07 08:44:11;;;;;;;7.90;4.00;;;23.40;99.90;;;;;;5061606;28;20037;-73
2023/09/07 08:46:40;;;;;;;15.02;4.32;;;23.50;99.90;;;;;;5058939;28;20379;-73
2023/09/07 08:49:06;;;;;;;6.60;3.60;;;23.50;99.90;;;;;;5056654;28;20054;-70
2023/09/07 08:51:33;;;;;;;7.75;3.80;;;23.60;99.90;;;;;;5055519;28;20469;-71
2023/09/07 08:54:00;;;;;;;5.90;3.60;;;23.70;99.90;;;;;;5052284;28;20040;-74
2023/09/07 08:56:26;;;;;;;7.50;3.60;;;23.70;99.90;;;;;;5051403;28;20955;-73
2023/09/07 08:58:52;;;;;;;8.77;3.60;;;23.80;99.90;;;;;;5055214;28;20033;-73
2023/09/07 09:01:18;;;;;;;6.50;3.60;;;23.90;99.90;;;;;;5053083;28;20123;-73
2023/09/07 09:03:45;;;;;;;8.20;3.58;;;24.00;99.90;;;;;;5053088;28;20475;-73
2023/09/07 09:06:12;;;;;;;8.23;3.90;;;24.00;99.90;;;;;;5052206;28;20542;-73
2023/09/07 09:08:50;;;;;;;10.25;3.78;;;24.10;99.90;;;;;;5054255;28;20048;-73
2023/09/07 09:11:17;;;;;;;7.88;3.20;;;24.20;99.90;;;;;;5055840;28;20040;-72
2023/09/07 09:13:44;;;;;;;8.18;3.20;;;24.20;99.90;;;;;;5055701;28;20084;-74
2023/09/07 09:16:10;;;;;;;10.60;3.33;;;24.30;99.90;;;;;;5055980;28;20041;-73
2023/09/07 09:18:37;;;;;;;5.55;3.03;;;24.40;99.90;;;;;;5058737;28;20441;-73
2023/09/07 09:21:03;;;;;;;9.27;3.30;;;24.50;99.90;;;;;;5061836;28;20040;-73
2023/09/07 09:23:36;;;;;;;9.00;3.58;;;24.60;99.90;;;;;;5058985;28;20044;-73
2023/09/07 09:26:04;;;;;;;6.07;3.20;;;24.60;99.90;;;;;;5060154;28;20133;-74
2023/09/07 09:28:34;;;;;;;8.80;3.47;;;24.70;99.90;;;;;;5057464;28;20047;-74
2023/09/07 09:31:06;;;;;;;7.13;3.13;;;24.80;99.90;;;;;;5061133;28;20044;-73
2023/09/07 09:33:33;;;;;;;7.15;3.67;;;24.90;99.90;;;;;;5059524;28;20514;-71
2023/09/07 09:35:59;;;;;;;6.55;3.25;;;25.00;99.90;;;;;;5059899;28;20068;-71
2023/09/07 09:38:25;;;;;;;7.25;3.47;;;25.00;99.90;;;;;;5062405;28;21547;-71
2023/09/07 09:40:52;;;;;;;7.93;3.30;;;25.10;99.90;;;;;;5067317;28;20039;-71
2023/09/07 09:43:20;;;;;;;7.43;3.13;;;25.20;99.90;;;;;;5055610;28;20056;-70
2023/09/07 09:45:46;;;;;;;9.73;3.47;;;25.20;99.90;;;;;;5060704;28;20037;-71
2023/09/07 09:48:14;;;;;;;9.55;3.63;;;25.30;99.90;;;;;;5062998;28;20047;-71
2023/09/07 09:50:41;;;;;;;8.30;4.32;;;25.30;99.90;;;;;;5056087;28;20552;-71
2023/09/07 09:53:11;;;;;;;8.13;3.40;;;25.40;99.90;;;;;;5054030;28;20067;-71
2023/09/07 09:55:38;;;;;;;7.55;3.17;;;25.40;99.90;;;;;;5052654;28;20123;-71
2023/09/07 09:58:04;;;;;;;7.55;3.47;;;25.50;99.90;;;;;;5051709;28;20045;-71
2023/09/07 10:00:30;;;;;;;7.95;3.30;;;25.50;99.90;;;;;;5056955;28;20459;-72
2023/09/07 10:03:13;;;;;;;6.82;3.30;;;25.50;99.90;;;;;;5054986;28;20067;-71
2023/09/07 10:05:39;;;;;;;7.80;3.55;;;25.60;99.90;;;;;;5051507;28;20529;-71
2023/09/07 10:08:14;;;;;;;9.07;3.30;;;25.60;99.90;;;;;;5034981;28;20041;-71
2023/09/07 10:10:46;;;;;;;12.23;3.33;;;25.70;99.90;;;;;;5053046;28;20047;-71
2023/09/07 10:13:16;;;;;;;7.68;3.03;;;25.70;99.90;;;;;;5055014;28;20609;-73
2023/09/07 10:15:44;;;;;;;11.63;3.78;;;25.80;99.90;;;;;;5060426;28;20049;-74
2023/09/07 10:18:16;;;;;;;6.43;3.70;;;25.90;99.90;;;;;;5057262;28;20045;-74
2023/09/07 10:20:55;;;;;;;7.32;3.50;;;25.90;99.90;;;;;;5061554;28;20059;-75
2023/09/07 10:23:23;;;;;;;12.43;3.55;;;26.00;99.90;;;;;;5061573;28;21908;-74
2023/09/07 10:25:53;;;;;;;9.00;3.45;;;26.00;99.90;;;;;;5067646;28;20039;-74
2023/09/07 10:28:23;;;;;;;9.25;3.22;;;26.00;99.90;;;;;;5052863;28;20041;-75
2023/09/07 10:31:03;;;;;;;;;;;26.10;99.90;;;;;;5056540;28;20049;-75
2023/09/07 10:33:30;;;;;;;7.50;3.53;;;26.10;99.90;;;;;;5063132;28;19971;-74
2023/09/07 10:35:56;;;;;;;6.90;3.53;;;26.10;99.90;;;;;;5059453;28;20174;-75
2023/09/07 10:38:22;;;;;;;7.18;3.20;;;26.10;99.90;;;;;;5057545;28;20053;-74
2023/09/07 10:40:54;;;;;;;6.63;3.40;;;26.20;99.90;;;;;;5057574;28;20544;-74
2023/09/07 10:43:20;;;;;;;7.32;3.42;;;26.30;99.90;;;;;;5063336;28;20048;-75
2023/09/07 10:45:46;;;;;;;8.25;3.58;;;26.30;99.90;;;;;;5057277;28;20089;-74
2023/09/07 10:48:16;;;;;;;8.90;3.63;;;26.30;99.90;;;;;;5054894;28;20124;-75
2023/09/07 10:50:44;;;;;;;;;;;26.40;99.90;;;;;;5063647;28;20040;-74
2023/09/07 10:53:11;;;;;;;7.22;3.83;;;26.40;99.90;;;;;;5060699;28;19937;-74
2023/09/07 10:55:40;;;;;;;8.82;3.30;;;26.50;99.90;;;;;;5061806;28;20048;-74
2023/09/07 10:58:08;;;;;;;8.15;3.58;;;26.50;99.90;;;;;;5058014;28;20211;-74
2023/09/07 11:00:34;;;;;;;8.20;3.50;;;26.50;99.90;;;;;;5047066;28;20045;-74
2023/09/07 11:03:08;;;;;;;8.93;3.42;;;26.50;99.90;;;;;;5060002;28;20431;-74
2023/09/07 11:05:36;;;;;;;6.25;3.30;;;26.60;99.90;;;;;;5063468;28;20106;-75
2023/09/07 11:08:04;;;;;;;6.45;3.45;;;26.70;99.90;;;;;;5047398;28;20118;-74
2023/09/07 11:10:36;;;;;;;9.77;3.45;;;26.70;99.90;;;;;;5046995;28;20056;-74
2023/09/07 11:13:06;;;;;;;6.03;3.38;;;26.70;99.90;;;;;;5064068;28;20036;-74
2023/09/07 11:15:33;;;;;;;6.35;3.20;;;26.80;99.90;;;;;;5049869;28;20131;-74
2023/09/07 11:18:09;;;;;;;7.07;3.50;;;26.90;99.90;;;;;;5053844;28;20048;-74
2023/09/07 11:20:36;;;;;;;8.98;3.47;;;26.90;99.90;;;;;;5053084;28;20051;-74
2023/09/07 11:23:02;;;;;;;9.32;3.55;;;26.90;99.90;;;;;;5045681;28;20406;-75
2023/09/07 11:25:38;;;;;;;6.53;3.50;;;27.00;99.90;;;;;;5049279;28;20049;-74
2023/09/07 11:28:08;;;;;;;8.07;3.35;;;27.00;99.90;;;;;;5045473;28;20454;-74
2023/09/07 11:30:35;;;;;;;9.13;3.90;;;27.10;99.90;;;;;;5049241;28;20057;-74
2023/09/07 11:33:02;;;;;;;8.35;3.95;;;27.10;99.90;;;;;;5045270;28;20037;-74
2023/09/07 11:35:28;;;;;;;7.80;3.70;;;27.20;99.90;;;;;;5051982;28;20064;-74
2023/09/07 11:37:54;;;;;;;6.63;3.85;;;27.20;99.90;;;;;;5049166;28;20134;-75
2023/09/07 11:40:19;;;;;;;7.65;3.38;;;27.20;99.90;;;;;;5052651;28;20121;-74
2023/09/07 11:42:45;;;;;;;8.07;3.60;;;27.30;99.90;;;;;;5045013;28;20033;-74
2023/09/07 11:45:13;;;;;;;8.93;3.42;;;27.40;99.90;;;;;;5051552;28;20082;-74
2023/09/07 11:47:39;;;;;;;11.15;3.28;;;27.30;99.90;;;;;;5051455;28;20510;-74
2023/09/07 11:50:06;;;;;;;7.72;3.45;;;27.40;99.90;;;;;;5051994;28;20142;-74
2023/09/07 11:52:32;;;;;;;6.47;3.40;;;27.40;99.90;;;;;;5042624;28;20904;-72
2023/09/07 11:54:58;;;;;;;7.57;3.15;;;27.50;99.90;;;;;;5038359;28;20048;-72
2023/09/07 11:57:24;;;;;;;7.65;3.50;;;27.50;99.90;;;;;;5048574;28;20075;-71
2023/09/07 11:59:50;;;;;;;6.65;3.60;;;27.50;99.90;;;;;;5056476;28;20044;-72
2023/09/07 12:02:17;;;;;;;7.47;3.47;;;27.60;99.90;;;;;;5042594;28;20047;-72
2023/09/07 12:04:43;;;;;;;11.15;3.30;;;27.60;99.90;;;;;;5039468;28;20053;-71
2023/09/07 12:07:10;;;;;;;9.60;3.15;;;27.70;99.90;;;;;;5074085;28;20417;-72
2023/09/07 12:09:35;;;;;;;5.25;2.78;;;27.70;99.90;;;;;;5051415;28;20083;-73
2023/09/07 12:12:03;;;;;;;8.52;2.92;;;27.80;99.90;;;;;;5046613;28;20214;-73
2023/09/07 12:14:29;;;;;;;8.48;2.97;;;27.80;99.90;;;;;;5037231;28;20048;-73
2023/09/07 12:16:55;;;;;;;9.90;3.35;;;27.80;99.90;;;;;;5043397;28;20056;-72
2023/09/07 12:19:21;;;;;;;7.93;3.00;;;27.90;99.90;;;;;;5037964;28;20037;-72
2023/09/07 12:21:46;;;;;;;4.75;2.60;;;27.90;99.90;;;;;;5036538;28;20040;-73
2023/09/07 12:24:13;;;;;;;7.72;3.05;;;28.00;99.90;;;;;;5041600;28;20159;-72
2023/09/07 12:26:38;;;;;;;7.63;3.58;;;28.00;99.70;;;;;;5041341;28;20092;-72
2023/09/07 12:29:04;;;;;;;5.75;2.90;;;28.10;99.60;;;;;;5058768;28;20976;-72
2023/09/07 12:31:31;;;;;;;7.60;2.90;;;28.10;99.40;;;;;;5042444;28;20041;-72
2023/09/07 12:33:57;;;;;;;6.75;2.72;;;28.10;99.60;;;;;;5045828;28;20040;-73
2023/09/07 12:36:23;;;;;;;5.38;2.88;;;28.10;99.90;;;;;;5034116;28;20045;-72
2023/09/07 12:38:49;;;;;;;9.43;3.03;;;28.20;99.20;;;;;;5035520;28;20175;-72
2023/09/07 12:41:16;;;;;;;9.40;3.67;;;28.20;98.90;;;;;;5039562;28;20048;-72
2023/09/07 12:43:46;;;;;;;6.18;3.10;;;28.30;97.90;;;;;;5034799;28;20573;-71